sensor_id;sensor_type;location;lat;lon;timestamp;P1;durP1;ratioP1;P2;durP2;ratioP2
21820;SDS011;11073;48.586;12.066;2023-04-25T00:01:07;2.65;;;2.10;;
21820;SDS011;11073;48.586;12.066;2023-04-25T00:03:37;2.58;;;2.38;;
21820;SDS011;11073;48.586;12.066;2023-04-25T00:06:07;5.03;;;2.30;;
21820;SDS011;11073;48.586;12.066;2023-04-25T00:08:36;4.72;;;2.42;;
21820;SDS011;11073;48.586;12.066;2023-04-25T00:11:05;4.72;;;2.55;;
21820;SDS011;11073;48.586;12.066;2023-04-25T00:13:34;2.78;;;2.55;;
21820;SDS011;11073;48.586;12.066;2023-04-25T00:16:03;2.78;;;2.13;;
21820;SDS011;11073;48.586;12.066;2023-04-25T00:18:34;2.55;;;2.00;;
21820;SDS011;11073;48.586;12.066;2023-04-25T00:21:03;4.00;;;2.35;;
21820;SDS011;11073;48.586;12.066;2023-04-25T00:23:35;4.63;;;3.63;;
21820;SDS011;11073;48.586;12.066;2023-04-25T00:26:04;4.80;;;3.10;;
21820;SDS011;11073;48.586;12.066;2023-04-25T00:28:33;5.32;;;3.42;;
21820;SDS011;11073;48.586;12.066;2023-04-25T00:31:02;3.45;;;2.60;;
21820;SDS011;11073;48.586;12.066;2023-04-25T00:33:31;3.80;;;2.60;;
21820;SDS011;11073;48.586;12.066;2023-04-25T00:36:01;4.03;;;2.90;;
21820;SDS011;11073;48.586;12.066;2023-04-25T00:38:30;3.35;;;2.90;;
21820;SDS011;11073;48.586;12.066;2023-04-25T00:41:01;4.35;;;2.92;;
21820;SDS011;11073;48.586;12.066;2023-04-25T00:43:29;4.28;;;2.60;;
21820;SDS011;11073;48.586;12.066;2023-04-25T00:46:02;6.63;;;2.80;;
21820;SDS011;11073;48.586;12.066;2023-04-25T00:48:30;4.20;;;2.83;;
21820;SDS011;11073;48.586;12.066;2023-04-25T00:50:59;4.70;;;2.80;;
21820;SDS011;11073;48.586;12.066;2023-04-25T00:53:28;6.22;;;3.08;;
21820;SDS011;11073;48.586;12.066;2023-04-25T00:56:02;4.47;;;3.00;;
21820;SDS011;11073;48.586;12.066;2023-04-25T00:58:31;7.05;;;5.15;;
21820;SDS011;11073;48.586;12.066;2023-04-25T01:01:00;8.23;;;5.00;;
21820;SDS011;11073;48.586;12.066;2023-04-25T01:03:29;6.10;;;3.92;;
21820;SDS011;11073;48.586;12.066;2023-04-25T01:06:04;4.93;;;3.40;;
21820;SDS011;11073;48.586;12.066;2023-04-25T01:08:32;3.13;;;2.83;;
21820;SDS011;11073;48.586;12.066;2023-04-25T01:11:03;4.55;;;3.00;;
21820;SDS011;11073;48.586;12.066;2023-04-25T01:13:32;4.50;;;3.00;;
21820;SDS011;11073;48.586;12.066;2023-04-25T01:16:02;4.90;;;3.13;;
21820;SDS011;11073;48.586;12.066;2023-04-25T01:18:33;3.95;;;3.30;;
21820;SDS011;11073;48.586;12.066;2023-04-25T01:21:06;3.60;;;3.13;;
21820;SDS011;11073;48.586;12.066;2023-04-25T01:23:37;3.60;;;3.08;;
21820;SDS011;11073;48.586;12.066;2023-04-25T01:26:06;3.97;;;2.90;;
21820;SDS011;11073;48.586;12.066;2023-04-25T01:28:37;3.33;;;2.85;;
21820;SDS011;11073;48.586;12.066;2023-04-25T01:31:08;5.82;;;2.90;;
21820;SDS011;11073;48.586;12.066;2023-04-25T01:33:38;2.90;;;2.47;;
21820;SDS011;11073;48.586;12.066;2023-04-25T01:36:08;3.33;;;2.60;;
21820;SDS011;11073;48.586;12.066;2023-04-25T01:38:37;2.85;;;2.50;;
21820;SDS011;11073;48.586;12.066;2023-04-25T01:41:07;3.97;;;2.67;;
21820;SDS011;11073;48.586;12.066;2023-04-25T01:43:36;3.75;;;2.38;;
21820;SDS011;11073;48.586;12.066;2023-04-25T01:46:06;2.90;;;2.42;;
21820;SDS011;11073;48.586;12.066;2023-04-25T01:48:35;3.75;;;2.00;;
21820;SDS011;11073;48.586;12.066;2023-04-25T01:51:06;2.50;;;2.30;;
21820;SDS011;11073;48.586;12.066;2023-04-25T01:53:36;3.20;;;2.60;;
21820;SDS011;11073;48.586;12.066;2023-04-25T01:56:06;3.78;;;2.45;;
21820;SDS011;11073;48.586;12.066;2023-04-25T01:58:35;2.97;;;2.60;;
21820;SDS011;11073;48.586;12.066;2023-04-25T02:01:20;2.88;;;2.58;;
21820;SDS011;11073;48.586;12.066;2023-04-25T02:04:05;5.45;;;3.60;;
21820;SDS011;11073;48.586;12.066;2023-04-25T02:06:38;6.03;;;3.78;;
21820;SDS011;11073;48.586;12.066;2023-04-25T02:09:08;4.05;;;3.17;;
21820;SDS011;11073;48.586;12.066;2023-04-25T02:11:42;4.25;;;3.17;;
21820;SDS011;11073;48.586;12.066;2023-04-25T02:14:29;3.53;;;2.70;;
21820;SDS011;11073;48.586;12.066;2023-04-25T02:17:18;3.83;;;2.67;;
21820;SDS011;11073;48.586;12.066;2023-04-25T02:19:48;3.83;;;2.63;;
21820;SDS011;11073;48.586;12.066;2023-04-25T02:22:17;2.80;;;2.50;;
21820;SDS011;11073;48.586;12.066;2023-04-25T02:24:47;2.80;;;2.50;;
21820;SDS011;11073;48.586;12.066;2023-04-25T02:27:15;3.83;;;3.00;;
21820;SDS011;11073;48.586;12.066;2023-04-25T02:29:44;2.55;;;2.35;;
21820;SDS011;11073;48.586;12.066;2023-04-25T02:32:12;5.97;;;2.78;;
21820;SDS011;11073;48.586;12.066;2023-04-25T02:34:41;4.45;;;2.50;;
21820;SDS011;11073;48.586;12.066;2023-04-25T02:37:10;3.75;;;2.78;;
21820;SDS011;11073;48.586;12.066;2023-04-25T02:39:38;3.65;;;2.42;;
21820;SDS011;11073;48.586;12.066;2023-04-25T02:42:08;2.85;;;2.35;;
21820;SDS011;11073;48.586;12.066;2023-04-25T02:44:37;5.30;;;3.08;;
21820;SDS011;11073;48.586;12.066;2023-04-25T02:47:06;4.72;;;2.70;;
21820;SDS011;11073;48.586;12.066;2023-04-25T02:49:35;4.25;;;3.10;;
21820;SDS011;11073;48.586;12.066;2023-04-25T02:52:04;4.00;;;2.97;;
21820;SDS011;11073;48.586;12.066;2023-04-25T02:54:33;3.42;;;2.92;;
21820;SDS011;11073;48.586;12.066;2023-04-25T02:57:02;3.28;;;2.65;;
21820;SDS011;11073;48.586;12.066;2023-04-25T02:59:37;5.43;;;2.30;;
21820;SDS011;11073;48.586;12.066;2023-04-25T03:02:05;4.13;;;2.33;;
21820;SDS011;11073;48.586;12.066;2023-04-25T03:04:34;4.65;;;2.50;;
21820;SDS011;11073;48.586;12.066;2023-04-25T03:07:04;3.58;;;2.70;;
21820;SDS011;11073;48.586;12.066;2023-04-25T03:09:32;3.00;;;2.72;;
21820;SDS011;11073;48.586;12.066;2023-04-25T03:12:02;4.93;;;3.28;;
21820;SDS011;11073;48.586;12.066;2023-04-25T03:14:33;5.65;;;3.60;;
21820;SDS011;11073;48.586;12.066;2023-04-25T03:17:03;6.43;;;3.47;;
21820;SDS011;11073;48.586;12.066;2023-04-25T03:19:34;4.60;;;2.63;;
21820;SDS011;11073;48.586;12.066;2023-04-25T03:22:04;3.67;;;2.83;;
21820;SDS011;11073;48.586;12.066;2023-04-25T03:24:33;5.03;;;2.63;;
21820;SDS011;11073;48.586;12.066;2023-04-25T03:27:02;4.78;;;2.80;;
21820;SDS011;11073;48.586;12.066;2023-04-25T03:29:31;3.50;;;2.90;;
21820;SDS011;11073;48.586;12.066;2023-04-25T03:32:04;4.97;;;2.80;;
21820;SDS011;11073;48.586;12.066;2023-04-25T03:34:33;4.05;;;2.90;;
21820;SDS011;11073;48.586;12.066;2023-04-25T03:37:02;4.30;;;3.10;;
21820;SDS011;11073;48.586;12.066;2023-04-25T03:39:36;5.23;;;3.43;;
21820;SDS011;11073;48.586;12.066;2023-04-25T03:42:06;5.43;;;3.20;;
21820;SDS011;11073;48.586;12.066;2023-04-25T03:44:35;5.70;;;2.92;;
21820;SDS011;11073;48.586;12.066;2023-04-25T03:47:05;4.60;;;3.73;;
21820;SDS011;11073;48.586;12.066;2023-04-25T03:49:34;5.73;;;3.37;;
21820;SDS011;11073;48.586;12.066;2023-04-25T03:52:05;4.95;;;3.40;;
21820;SDS011;11073;48.586;12.066;2023-04-25T03:54:38;5.88;;;3.35;;
21820;SDS011;11073;48.586;12.066;2023-04-25T03:57:11;5.97;;;4.00;;
21820;SDS011;11073;48.586;12.066;2023-04-25T03:59:39;4.35;;;3.30;;
21820;SDS011;11073;48.586;12.066;2023-04-25T04:02:12;4.72;;;3.53;;
21820;SDS011;11073;48.586;12.066;2023-04-25T04:04:41;6.93;;;3.92;;
21820;SDS011;11073;48.586;12.066;2023-04-25T04:07:12;7.30;;;3.30;;
21820;SDS011;11073;48.586;12.066;2023-04-25T04:09:44;4.82;;;3.80;;
21820;SDS011;11073;48.586;12.066;2023-04-25T04:12:19;7.25;;;3.60;;
21820;SDS011;11073;48.586;12.066;2023-04-25T04:14:48;6.90;;;3.90;;
21820;SDS011;11073;48.586;12.066;2023-04-25T04:17:18;7.38;;;3.67;;
21820;SDS011;11073;48.586;12.066;2023-04-25T04:19:47;8.82;;;4.32;;
21820;SDS011;11073;48.586;12.066;2023-04-25T04:22:20;7.18;;;3.67;;
21820;SDS011;11073;48.586;12.066;2023-04-25T04:24:50;5.45;;;3.65;;
21820;SDS011;11073;48.586;12.066;2023-04-25T04:27:27;5.82;;;3.92;;
21820;SDS011;11073;48.586;12.066;2023-04-25T04:30:14;6.25;;;4.03;;
21820;SDS011;11073;48.586;12.066;2023-04-25T04:32:56;5.10;;;3.60;;
21820;SDS011;11073;48.586;12.066;2023-04-25T04:35:26;5.85;;;3.90;;
21820;SDS011;11073;48.586;12.066;2023-04-25T04:37:54;4.65;;;3.60;;
21820;SDS011;11073;48.586;12.066;2023-04-25T04:40:25;5.88;;;3.63;;
21820;SDS011;11073;48.586;12.066;2023-04-25T04:43:04;6.40;;;4.30;;
21820;SDS011;11073;48.586;12.066;2023-04-25T04:45:51;15.00;;;6.55;;
21820;SDS011;11073;48.586;12.066;2023-04-25T04:48:36;6.10;;;4.05;;
21820;SDS011;11073;48.586;12.066;2023-04-25T04:51:36;11.53;;;4.00;;
21820;SDS011;11073;48.586;12.066;2023-04-25T04:54:31;7.82;;;3.90;;
21820;SDS011;11073;48.586;12.066;2023-04-25T04:57:26;7.82;;;3.50;;
21820;SDS011;11073;48.586;12.066;2023-04-25T05:00:02;5.80;;;3.60;;
21820;SDS011;11073;48.586;12.066;2023-04-25T05:03:10;4.35;;;3.40;;
21820;SDS011;11073;48.586;12.066;2023-04-25T05:06:02;7.30;;;3.65;;
21820;SDS011;11073;48.586;12.066;2023-04-25T05:08:49;4.43;;;3.40;;
21820;SDS011;11073;48.586;12.066;2023-04-25T05:11:21;5.35;;;3.38;;
21820;SDS011;11073;48.586;12.066;2023-04-25T05:13:56;6.57;;;3.60;;
21820;SDS011;11073;48.586;12.066;2023-04-25T05:17:00;7.97;;;3.77;;
21820;SDS011;11073;48.586;12.066;2023-04-25T05:19:41;6.65;;;3.85;;
21820;SDS011;11073;48.586;12.066;2023-04-25T05:22:26;4.60;;;3.40;;
21820;SDS011;11073;48.586;12.066;2023-04-25T05:25:07;4.65;;;4.18;;
21820;SDS011;11073;48.586;12.066;2023-04-25T05:27:57;5.13;;;3.97;;
21820;SDS011;11073;48.586;12.066;2023-04-25T05:30:39;6.93;;;4.00;;
21820;SDS011;11073;48.586;12.066;2023-04-25T05:33:16;5.03;;;3.60;;
21820;SDS011;11073;48.586;12.066;2023-04-25T05:35:46;3.88;;;3.00;;
21820;SDS011;11073;48.586;12.066;2023-04-25T05:38:16;5.35;;;3.50;;
21820;SDS011;11073;48.586;12.066;2023-04-25T05:41:05;4.45;;;3.33;;
21820;SDS011;11073;48.586;12.066;2023-04-25T05:43:48;4.25;;;3.25;;
21820;SDS011;11073;48.586;12.066;2023-04-25T05:46:46;5.05;;;3.40;;
21820;SDS011;11073;48.586;12.066;2023-04-25T05:49:30;4.10;;;3.40;;
21820;SDS011;11073;48.586;12.066;2023-04-25T05:52:19;6.03;;;3.88;;
21820;SDS011;11073;48.586;12.066;2023-04-25T05:54:58;5.23;;;2.90;;
21820;SDS011;11073;48.586;12.066;2023-04-25T05:57:29;5.45;;;2.78;;
21820;SDS011;11073;48.586;12.066;2023-04-25T05:59:59;4.78;;;2.92;;
21820;SDS011;11073;48.586;12.066;2023-04-25T06:02:40;4.03;;;3.47;;
21820;SDS011;11073;48.586;12.066;2023-04-25T06:05:11;6.50;;;3.90;;
21820;SDS011;11073;48.586;12.066;2023-04-25T06:07:39;7.45;;;3.45;;
21820;SDS011;11073;48.586;12.066;2023-04-25T06:10:10;4.22;;;3.28;;
21820;SDS011;11073;48.586;12.066;2023-04-25T06:12:39;4.72;;;2.95;;
21820;SDS011;11073;48.586;12.066;2023-04-25T06:15:08;5.72;;;3.60;;
21820;SDS011;11073;48.586;12.066;2023-04-25T06:17:53;7.57;;;3.17;;
21820;SDS011;11073;48.586;12.066;2023-04-25T06:20:22;6.05;;;3.35;;
21820;SDS011;11073;48.586;12.066;2023-04-25T06:22:54;5.45;;;3.08;;
21820;SDS011;11073;48.586;12.066;2023-04-25T06:25:35;5.22;;;2.92;;
21820;SDS011;11073;48.586;12.066;2023-04-25T06:28:04;4.82;;;2.92;;
21820;SDS011;11073;48.586;12.066;2023-04-25T06:30:34;7.22;;;3.33;;
21820;SDS011;11073;48.586;12.066;2023-04-25T06:33:07;6.38;;;3.35;;
21820;SDS011;11073;48.586;12.066;2023-04-25T06:35:38;6.35;;;2.90;;
21820;SDS011;11073;48.586;12.066;2023-04-25T06:38:10;6.10;;;2.95;;
21820;SDS011;11073;48.586;12.066;2023-04-25T06:40:44;7.97;;;3.17;;
21820;SDS011;11073;48.586;12.066;2023-04-25T06:43:13;6.75;;;3.25;;
21820;SDS011;11073;48.586;12.066;2023-04-25T06:45:45;5.22;;;3.03;;
21820;SDS011;11073;48.586;12.066;2023-04-25T06:48:15;3.22;;;2.83;;
21820;SDS011;11073;48.586;12.066;2023-04-25T06:50:44;3.58;;;2.70;;
21820;SDS011;11073;48.586;12.066;2023-04-25T06:53:13;3.72;;;2.75;;
21820;SDS011;11073;48.586;12.066;2023-04-25T06:55:46;5.47;;;2.65;;
21820;SDS011;11073;48.586;12.066;2023-04-25T06:58:18;4.25;;;2.58;;
21820;SDS011;11073;48.586;12.066;2023-04-25T07:00:59;6.78;;;4.07;;
21820;SDS011;11073;48.586;12.066;2023-04-25T07:03:28;8.52;;;5.68;;
21820;SDS011;11073;48.586;12.066;2023-04-25T07:06:03;7.65;;;4.28;;
21820;SDS011;11073;48.586;12.066;2023-04-25T07:08:32;4.15;;;2.75;;
21820;SDS011;11073;48.586;12.066;2023-04-25T07:11:03;4.95;;;2.90;;
21820;SDS011;11073;48.586;12.066;2023-04-25T07:13:32;3.85;;;2.35;;
21820;SDS011;11073;48.586;12.066;2023-04-25T07:16:01;3.50;;;2.25;;
21820;SDS011;11073;48.586;12.066;2023-04-25T07:18:31;3.42;;;2.40;;
21820;SDS011;11073;48.586;12.066;2023-04-25T07:21:00;3.90;;;2.22;;
21820;SDS011;11073;48.586;12.066;2023-04-25T07:23:31;4.55;;;2.13;;
21820;SDS011;11073;48.586;12.066;2023-04-25T07:26:06;4.55;;;2.15;;
21820;SDS011;11073;48.586;12.066;2023-04-25T07:28:37;3.35;;;1.80;;
21820;SDS011;11073;48.586;12.066;2023-04-25T07:31:07;5.88;;;2.03;;
21820;SDS011;11073;48.586;12.066;2023-04-25T07:33:36;4.53;;;1.75;;
21820;SDS011;11073;48.586;12.066;2023-04-25T07:36:05;3.47;;;1.90;;
21820;SDS011;11073;48.586;12.066;2023-04-25T07:38:35;3.97;;;1.98;;
21820;SDS011;11073;48.586;12.066;2023-04-25T07:41:04;2.05;;;1.80;;
21820;SDS011;11073;48.586;12.066;2023-04-25T07:43:37;4.70;;;2.20;;
21820;SDS011;11073;48.586;12.066;2023-04-25T07:46:06;3.28;;;2.20;;
21820;SDS011;11073;48.586;12.066;2023-04-25T07:48:36;2.78;;;2.13;;
21820;SDS011;11073;48.586;12.066;2023-04-25T07:51:05;3.80;;;2.78;;
21820;SDS011;11073;48.586;12.066;2023-04-25T07:53:36;4.32;;;2.85;;
21820;SDS011;11073;48.586;12.066;2023-04-25T07:56:12;4.38;;;2.97;;
21820;SDS011;11073;48.586;12.066;2023-04-25T07:58:44;5.97;;;2.60;;
21820;SDS011;11073;48.586;12.066;2023-04-25T08:01:15;4.68;;;2.70;;
21820;SDS011;11073;48.586;12.066;2023-04-25T08:03:52;4.55;;;2.67;;
21820;SDS011;11073;48.586;12.066;2023-04-25T08:06:33;3.35;;;2.20;;
21820;SDS011;11073;48.586;12.066;2023-04-25T08:09:12;4.55;;;2.60;;
21820;SDS011;11073;48.586;12.066;2023-04-25T08:11:44;5.32;;;2.60;;
21820;SDS011;11073;48.586;12.066;2023-04-25T08:14:16;5.25;;;2.60;;
21820;SDS011;11073;48.586;12.066;2023-04-25T08:16:45;8.07;;;2.70;;
21820;SDS011;11073;48.586;12.066;2023-04-25T08:19:15;3.38;;;2.35;;
21820;SDS011;11073;48.586;12.066;2023-04-25T08:21:47;3.63;;;2.35;;
21820;SDS011;11073;48.586;12.066;2023-04-25T08:24:23;6.47;;;2.55;;
21820;SDS011;11073;48.586;12.066;2023-04-25T08:26:54;5.78;;;2.40;;
21820;SDS011;11073;48.586;12.066;2023-04-25T08:29:26;5.68;;;2.40;;
21820;SDS011;11073;48.586;12.066;2023-04-25T08:31:55;4.70;;;2.30;;
21820;SDS011;11073;48.586;12.066;2023-04-25T08:34:24;5.82;;;2.42;;
21820;SDS011;11073;48.586;12.066;2023-04-25T08:36:54;4.45;;;2.88;;
21820;SDS011;11073;48.586;12.066;2023-04-25T08:39:39;3.83;;;2.70;;
21820;SDS011;11073;48.586;12.066;2023-04-25T08:42:28;5.75;;;2.92;;
21820;SDS011;11073;48.586;12.066;2023-04-25T08:45:03;4.47;;;2.50;;
21820;SDS011;11073;48.586;12.066;2023-04-25T08:47:37;5.03;;;2.55;;
21820;SDS011;11073;48.586;12.066;2023-04-25T08:50:09;5.35;;;2.22;;
21820;SDS011;11073;48.586;12.066;2023-04-25T08:52:39;6.88;;;2.65;;
21820;SDS011;11073;48.586;12.066;2023-04-25T08:55:13;5.05;;;2.80;;
21820;SDS011;11073;48.586;12.066;2023-04-25T08:57:45;4.25;;;2.20;;
21820;SDS011;11073;48.586;12.066;2023-04-25T09:00:16;4.07;;;2.42;;
21820;SDS011;11073;48.586;12.066;2023-04-25T09:02:47;5.90;;;2.35;;
21820;SDS011;11073;48.586;12.066;2023-04-25T09:05:18;4.63;;;2.67;;
21820;SDS011;11073;48.586;12.066;2023-04-25T09:07:51;3.05;;;2.33;;
21820;SDS011;11073;48.586;12.066;2023-04-25T09:10:20;3.83;;;2.70;;
21820;SDS011;11073;48.586;12.066;2023-04-25T09:13:02;4.75;;;2.60;;
21820;SDS011;11073;48.586;12.066;2023-04-25T09:15:48;4.35;;;2.75;;
21820;SDS011;11073;48.586;12.066;2023-04-25T09:18:43;4.85;;;2.90;;
21820;SDS011;11073;48.586;12.066;2023-04-25T09:21:15;3.58;;;2.15;;
21820;SDS011;11073;48.586;12.066;2023-04-25T09:23:47;2.70;;;1.55;;
21820;SDS011;11073;48.586;12.066;2023-04-25T09:26:21;3.45;;;1.98;;
21820;SDS011;11073;48.586;12.066;2023-04-25T09:28:57;2.95;;;1.75;;
21820;SDS011;11073;48.586;12.066;2023-04-25T09:31:37;2.10;;;1.27;;
21820;SDS011;11073;48.586;12.066;2023-04-25T09:34:09;4.13;;;1.60;;
21820;SDS011;11073;48.586;12.066;2023-04-25T09:36:49;3.95;;;1.20;;
21820;SDS011;11073;48.586;12.066;2023-04-25T09:39:37;1.50;;;1.20;;
21820;SDS011;11073;48.586;12.066;2023-04-25T09:42:13;2.95;;;1.45;;
21820;SDS011;11073;48.586;12.066;2023-04-25T09:44:44;2.00;;;1.40;;
21820;SDS011;11073;48.586;12.066;2023-04-25T09:47:15;2.40;;;1.80;;
21820;SDS011;11073;48.586;12.066;2023-04-25T09:49:45;4.85;;;2.05;;
21820;SDS011;11073;48.586;12.066;2023-04-25T09:52:14;11.73;;;5.85;;
21820;SDS011;11073;48.586;12.066;2023-04-25T09:55:07;5.97;;;3.55;;
21820;SDS011;11073;48.586;12.066;2023-04-25T09:57:37;7.40;;;4.68;;
21820;SDS011;11073;48.586;12.066;2023-04-25T10:00:09;9.45;;;5.22;;
21820;SDS011;11073;48.586;12.066;2023-04-25T10:02:42;7.95;;;3.75;;
21820;SDS011;11073;48.586;12.066;2023-04-25T10:05:35;6.90;;;4.85;;
21820;SDS011;11073;48.586;12.066;2023-04-25T10:08:05;5.20;;;3.58;;
21820;SDS011;11073;48.586;12.066;2023-04-25T10:10:36;3.47;;;3.15;;
21820;SDS011;11073;48.586;12.066;2023-04-25T10:13:06;3.75;;;2.90;;
21820;SDS011;11073;48.586;12.066;2023-04-25T10:15:36;3.78;;;2.97;;
21820;SDS011;11073;48.586;12.066;2023-04-25T10:18:07;6.78;;;3.70;;
21820;SDS011;11073;48.586;12.066;2023-04-25T10:20:36;6.00;;;3.90;;
21820;SDS011;11073;48.586;12.066;2023-04-25T10:23:06;6.25;;;3.28;;
21820;SDS011;11073;48.586;12.066;2023-04-25T10:25:40;4.22;;;3.03;;
21820;SDS011;11073;48.586;12.066;2023-04-25T10:28:10;3.53;;;2.90;;
21820;SDS011;11073;48.586;12.066;2023-04-25T10:30:39;4.82;;;2.95;;
21820;SDS011;11073;48.586;12.066;2023-04-25T10:33:29;5.93;;;2.60;;
21820;SDS011;11073;48.586;12.066;2023-04-25T10:36:08;5.35;;;3.28;;
21820;SDS011;11073;48.586;12.066;2023-04-25T10:38:37;5.78;;;2.63;;
21820;SDS011;11073;48.586;12.066;2023-04-25T10:41:08;2.75;;;2.00;;
21820;SDS011;11073;48.586;12.066;2023-04-25T10:43:39;4.70;;;2.15;;
21820;SDS011;11073;48.586;12.066;2023-04-25T10:46:19;2.55;;;1.80;;
21820;SDS011;11073;48.586;12.066;2023-04-25T10:48:52;5.25;;;3.70;;
21820;SDS011;11073;48.586;12.066;2023-04-25T10:51:23;3.80;;;1.40;;
21820;SDS011;11073;48.586;12.066;2023-04-25T10:53:59;1.40;;;1.30;;
21820;SDS011;11073;48.586;12.066;2023-04-25T10:56:29;3.13;;;1.27;;
21820;SDS011;11073;48.586;12.066;2023-04-25T10:59:08;2.60;;;1.25;;
21820;SDS011;11073;48.586;12.066;2023-04-25T11:01:41;2.58;;;1.20;;
21820;SDS011;11073;48.586;12.066;2023-04-25T11:04:20;1.10;;;1.00;;
21820;SDS011;11073;48.586;12.066;2023-04-25T11:07:04;1.90;;;1.23;;
21820;SDS011;11073;48.586;12.066;2023-04-25T11:09:39;0.80;;;0.80;;
21820;SDS011;11073;48.586;12.066;2023-04-25T11:12:08;0.70;;;0.70;;
21820;SDS011;11073;48.586;12.066;2023-04-25T11:14:39;0.80;;;0.80;;
21820;SDS011;11073;48.586;12.066;2023-04-25T11:17:09;1.27;;;0.65;;
21820;SDS011;11073;48.586;12.066;2023-04-25T11:19:38;0.77;;;0.77;;
21820;SDS011;11073;48.586;12.066;2023-04-25T11:22:07;2.15;;;1.00;;
21820;SDS011;11073;48.586;12.066;2023-04-25T11:24:38;1.08;;;0.70;;
21820;SDS011;11073;48.586;12.066;2023-04-25T11:27:06;0.90;;;0.90;;
21820;SDS011;11073;48.586;12.066;2023-04-25T11:29:35;2.33;;;0.82;;
21820;SDS011;11073;48.586;12.066;2023-04-25T11:32:04;1.10;;;1.00;;
21820;SDS011;11073;48.586;12.066;2023-04-25T11:34:34;2.63;;;1.58;;
21820;SDS011;11073;48.586;12.066;2023-04-25T11:37:04;2.08;;;1.73;;
21820;SDS011;11073;48.586;12.066;2023-04-25T11:39:33;2.05;;;1.80;;
21820;SDS011;11073;48.586;12.066;2023-04-25T11:42:03;2.08;;;1.88;;
21820;SDS011;11073;48.586;12.066;2023-04-25T11:44:40;3.15;;;1.73;;
21820;SDS011;11073;48.586;12.066;2023-04-25T11:47:09;2.47;;;1.98;;
21820;SDS011;11073;48.586;12.066;2023-04-25T11:49:39;2.10;;;1.90;;
21820;SDS011;11073;48.586;12.066;2023-04-25T11:52:08;2.05;;;1.90;;
21820;SDS011;11073;48.586;12.066;2023-04-25T11:54:38;3.05;;;2.63;;
21820;SDS011;11073;48.586;12.066;2023-04-25T11:57:07;2.67;;;1.88;;
21820;SDS011;11073;48.586;12.066;2023-04-25T11:59:36;2.40;;;1.98;;
21820;SDS011;11073;48.586;12.066;2023-04-25T12:02:04;1.95;;;1.70;;
21820;SDS011;11073;48.586;12.066;2023-04-25T12:04:34;2.17;;;1.80;;
21820;SDS011;11073;48.586;12.066;2023-04-25T12:07:05;1.70;;;1.45;;
21820;SDS011;11073;48.586;12.066;2023-04-25T12:09:38;1.63;;;1.52;;
21820;SDS011;11073;48.586;12.066;2023-04-25T12:12:09;2.58;;;1.75;;
21820;SDS011;11073;48.586;12.066;2023-04-25T12:14:38;1.88;;;1.65;;
21820;SDS011;11073;48.586;12.066;2023-04-25T12:17:06;1.73;;;1.52;;
21820;SDS011;11073;48.586;12.066;2023-04-25T12:19:37;2.78;;;1.50;;
21820;SDS011;11073;48.586;12.066;2023-04-25T12:22:19;1.23;;;1.13;;
21820;SDS011;11073;48.586;12.066;2023-04-25T12:24:49;4.35;;;1.38;;
21820;SDS011;11073;48.586;12.066;2023-04-25T12:27:20;1.60;;;1.35;;
21820;SDS011;11073;48.586;12.066;2023-04-25T12:29:50;2.80;;;1.88;;
21820;SDS011;11073;48.586;12.066;2023-04-25T12:32:19;2.20;;;1.20;;
21820;SDS011;11073;48.586;12.066;2023-04-25T12:34:49;1.67;;;1.58;;
21820;SDS011;11073;48.586;12.066;2023-04-25T12:37:17;1.98;;;1.40;;
21820;SDS011;11073;48.586;12.066;2023-04-25T12:39:47;1.50;;;1.40;;
21820;SDS011;11073;48.586;12.066;2023-04-25T12:42:16;1.50;;;1.40;;
21820;SDS011;11073;48.586;12.066;2023-04-25T12:44:44;2.17;;;1.50;;
21820;SDS011;11073;48.586;12.066;2023-04-25T12:47:13;2.08;;;1.23;;
21820;SDS011;11073;48.586;12.066;2023-04-25T12:49:43;1.42;;;1.33;;
21820;SDS011;11073;48.586;12.066;2023-04-25T12:52:12;3.30;;;1.50;;
21820;SDS011;11073;48.586;12.066;2023-04-25T12:54:41;2.17;;;1.67;;
21820;SDS011;11073;48.586;12.066;2023-04-25T12:57:12;1.60;;;1.50;;
21820;SDS011;11073;48.586;12.066;2023-04-25T12:59:41;1.90;;;1.60;;
21820;SDS011;11073;48.586;12.066;2023-04-25T13:02:10;4.60;;;2.70;;
21820;SDS011;11073;48.586;12.066;2023-04-25T13:04:39;3.78;;;2.40;;
21820;SDS011;11073;48.586;12.066;2023-04-25T13:07:09;1.85;;;1.40;;
21820;SDS011;11073;48.586;12.066;2023-04-25T13:09:37;1.88;;;1.30;;
21820;SDS011;11073;48.586;12.066;2023-04-25T13:12:06;2.25;;;1.75;;
21820;SDS011;11073;48.586;12.066;2023-04-25T13:14:36;3.78;;;1.73;;
21820;SDS011;11073;48.586;12.066;2023-04-25T13:17:05;1.70;;;1.60;;
21820;SDS011;11073;48.586;12.066;2023-04-25T13:19:34;2.22;;;1.90;;
21820;SDS011;11073;48.586;12.066;2023-04-25T13:22:04;2.13;;;1.77;;
21820;SDS011;11073;48.586;12.066;2023-04-25T13:24:33;4.47;;;2.30;;
21820;SDS011;11073;48.586;12.066;2023-04-25T13:27:02;3.33;;;2.22;;
21820;SDS011;11073;48.586;12.066;2023-04-25T13:29:31;3.45;;;2.17;;
21820;SDS011;11073;48.586;12.066;2023-04-25T13:32:03;2.70;;;2.38;;
21820;SDS011;11073;48.586;12.066;2023-04-25T13:34:32;2.45;;;2.20;;
21820;SDS011;11073;48.586;12.066;2023-04-25T13:37:01;3.55;;;2.10;;
21820;SDS011;11073;48.586;12.066;2023-04-25T13:39:30;7.63;;;2.40;;
21820;SDS011;11073;48.586;12.066;2023-04-25T13:41:59;5.35;;;3.63;;
21820;SDS011;11073;48.586;12.066;2023-04-25T13:44:29;9.65;;;4.72;;
21820;SDS011;11073;48.586;12.066;2023-04-25T13:46:57;5.18;;;3.80;;
21820;SDS011;11073;48.586;12.066;2023-04-25T13:49:30;3.90;;;3.50;;
21820;SDS011;11073;48.586;12.066;2023-04-25T13:51:59;4.55;;;3.40;;
21820;SDS011;11073;48.586;12.066;2023-04-25T13:54:28;3.85;;;2.95;;
21820;SDS011;11073;48.586;12.066;2023-04-25T13:56:58;6.03;;;4.38;;
21820;SDS011;11073;48.586;12.066;2023-04-25T13:59:26;6.43;;;4.90;;
21820;SDS011;11073;48.586;12.066;2023-04-25T14:01:55;2.42;;;2.00;;
21820;SDS011;11073;48.586;12.066;2023-04-25T14:04:24;3.00;;;2.42;;
21820;SDS011;11073;48.586;12.066;2023-04-25T14:06:55;2.85;;;2.60;;
21820;SDS011;11073;48.586;12.066;2023-04-25T14:09:24;3.17;;;2.67;;
21820;SDS011;11073;48.586;12.066;2023-04-25T14:11:54;3.03;;;2.55;;
21820;SDS011;11073;48.586;12.066;2023-04-25T14:14:23;2.75;;;2.35;;
21820;SDS011;11073;48.586;12.066;2023-04-25T14:16:51;3.10;;;2.50;;
21820;SDS011;11073;48.586;12.066;2023-04-25T14:19:21;3.05;;;2.28;;
21820;SDS011;11073;48.586;12.066;2023-04-25T14:21:50;2.50;;;2.30;;
21820;SDS011;11073;48.586;12.066;2023-04-25T14:24:20;6.47;;;4.13;;
21820;SDS011;11073;48.586;12.066;2023-04-25T14:26:48;3.75;;;3.13;;
21820;SDS011;11073;48.586;12.066;2023-04-25T14:29:17;2.45;;;2.25;;
21820;SDS011;11073;48.586;12.066;2023-04-25T14:31:45;3.80;;;2.25;;
21820;SDS011;11073;48.586;12.066;2023-04-25T14:34:14;3.50;;;3.20;;
21820;SDS011;11073;48.586;12.066;2023-04-25T14:36:43;3.72;;;2.20;;
21820;SDS011;11073;48.586;12.066;2023-04-25T14:39:12;2.78;;;2.50;;
21820;SDS011;11073;48.586;12.066;2023-04-25T14:41:43;5.05;;;3.35;;
21820;SDS011;11073;48.586;12.066;2023-04-25T14:44:11;3.70;;;3.10;;
21820;SDS011;11073;48.586;12.066;2023-04-25T14:46:40;3.95;;;3.17;;
21820;SDS011;11073;48.586;12.066;2023-04-25T14:49:09;3.28;;;2.85;;
21820;SDS011;11073;48.586;12.066;2023-04-25T14:51:37;4.00;;;3.13;;
21820;SDS011;11073;48.586;12.066;2023-04-25T14:54:05;3.38;;;2.70;;
21820;SDS011;11073;48.586;12.066;2023-04-25T14:56:34;2.80;;;2.30;;
21820;SDS011;11073;48.586;12.066;2023-04-25T14:59:04;3.40;;;2.72;;
21820;SDS011;11073;48.586;12.066;2023-04-25T15:01:33;4.78;;;2.97;;
21820;SDS011;11073;48.586;12.066;2023-04-25T15:04:03;3.05;;;2.75;;